createdAt,value
2024-01-11T00:01:55.428Z,41
2024-01-11T00:03:55.538Z,41
2024-01-11T00:05:55.717Z,40
2024-01-11T00:07:55.785Z,37
2024-01-11T00:09:55.857Z,36
2024-01-11T00:11:56.013Z,40
2024-01-11T00:13:56.129Z,43
2024-01-11T00:15:56.270Z,51
2024-01-11T00:17:56.375Z,55
2024-01-11T00:19:56.441Z,55
2024-01-11T00:21:56.498Z,53
2024-01-11T00:23:56.620Z,54
2024-01-11T00:25:56.787Z,53
2024-01-11T00:27:56.817Z,50
2024-01-11T00:29:56.954Z,49
2024-01-11T00:31:57.068Z,49
2024-01-11T00:33:57.270Z,48
2024-01-11T00:35:57.314Z,47
2024-01-11T00:37:57.340Z,48
2024-01-11T00:39:57.448Z,51
2024-01-11T00:41:57.552Z,53
2024-01-11T00:43:57.694Z,60
2024-01-11T00:45:57.880Z,55
2024-01-11T00:47:58.010Z,49
2024-01-11T00:49:58.025Z,44
2024-01-11T00:51:58.118Z,41
2024-01-11T00:53:58.221Z,39
2024-01-11T00:55:58.372Z,37
2024-01-11T00:57:58.466Z,37
2024-01-11T00:59:58.530Z,34
2024-01-11T01:01:58.665Z,33
2024-01-11T01:03:58.777Z,32
2024-01-11T01:05:58.942Z,32
2024-01-11T01:07:59.032Z,31
2024-01-11T01:09:59.055Z,30
2024-01-11T01:11:59.181Z,29
2024-01-11T01:13:59.430Z,28
2024-01-11T01:15:59.402Z,31
2024-01-11T01:17:59.852Z,37
2024-01-11T01:19:59.634Z,37
2024-01-11T01:21:59.737Z,36
2024-01-11T01:23:59.824Z,35
2024-01-11T01:26:00.001Z,36
2024-01-11T01:28:00.073Z,39
2024-01-11T01:30:00.284Z,43
2024-01-11T01:32:00.411Z,42
2024-01-11T01:36:00.497Z,44
2024-01-11T01:38:00.658Z,36
2024-01-11T01:40:00.797Z,36
2024-01-11T01:42:00.882Z,34
2024-01-11T01:44:01.033Z,33
2024-01-11T01:46:01.096Z,33
2024-01-11T01:48:01.549Z,31
2024-01-11T01:50:01.371Z,32
2024-01-11T01:52:01.410Z,32
2024-01-11T01:54:01.506Z,31
2024-01-11T01:56:01.701Z,31
2024-01-11T01:58:01.783Z,32
2024-01-11T02:00:01.845Z,32
2024-01-11T02:02:02.002Z,31
2024-01-11T02:04:02.056Z,31
2024-01-11T02:06:02.252Z,30
2024-01-11T02:08:02.296Z,33
2024-01-11T02:10:02.413Z,33
2024-01-11T02:12:02.485Z,34
2024-01-11T02:14:02.649Z,35
2024-01-11T02:16:02.789Z,39
2024-01-11T02:18:02.883Z,36
2024-01-11T02:20:03.015Z,37
2024-01-11T02:22:03.120Z,38
2024-01-11T02:26:03.437Z,37
2024-01-11T02:28:03.404Z,38
2024-01-11T02:30:03.563Z,38
2024-01-11T02:32:03.679Z,37
2024-01-11T02:34:03.863Z,36
2024-01-11T02:36:03.841Z,36
2024-01-11T02:38:03.987Z,35
2024-01-11T02:40:04.072Z,35
2024-01-11T02:42:04.335Z,37
2024-01-11T02:44:04.360Z,35
2024-01-11T02:46:04.418Z,35
2024-01-11T02:48:04.702Z,34
2024-01-11T02:50:04.666Z,34
2024-01-11T02:52:04.779Z,32
2024-01-11T02:54:04.906Z,31
2024-01-11T02:56:05.246Z,32
2024-01-11T02:58:05.169Z,31
2024-01-11T03:00:05.223Z,33
2024-01-11T03:04:05.571Z,32
2024-01-11T03:06:05.647Z,35
2024-01-11T03:08:05.716Z,35
2024-01-11T03:10:05.786Z,33
2024-01-11T03:12:05.888Z,33
2024-01-11T03:14:06.082Z,36
2024-01-11T03:16:06.133Z,35
2024-01-11T03:17:36.311Z,34
2024-01-11T03:19:36.278Z,35
2024-01-11T03:21:36.319Z,33
2024-01-11T03:23:36.596Z,32
2024-01-11T03:25:36.545Z,29
2024-01-11T03:27:36.595Z,29
2024-01-11T03:29:36.827Z,45
2024-01-11T03:31:36.786Z,35
2024-01-11T03:33:36.986Z,32
2024-01-11T03:35:36.984Z,31
2024-01-11T03:37:37.027Z,31
2024-01-11T03:39:37.099Z,31
2024-01-11T03:41:37.280Z,29
2024-01-11T03:43:37.373Z,40
2024-01-11T03:45:37.366Z,44
2024-01-11T03:47:37.555Z,41
2024-01-11T03:49:37.546Z,43
2024-01-11T03:51:37.652Z,41
2024-01-11T03:53:37.935Z,39
2024-01-11T03:55:37.829Z,40
2024-01-11T03:57:37.868Z,38
2024-01-11T03:59:37.971Z,36
2024-01-11T04:03:38.169Z,35
2024-01-11T04:05:38.486Z,35
2024-01-11T04:07:38.300Z,34
2024-01-11T04:09:38.359Z,36
2024-01-11T04:11:38.499Z,38
2024-01-11T04:13:38.567Z,37
2024-01-11T04:15:38.648Z,34
2024-01-11T04:17:38.858Z,30
2024-01-11T04:19:38.844Z,30
2024-01-11T04:21:38.874Z,27
2024-01-11T04:23:39.007Z,26
2024-01-11T04:25:39.081Z,26
2024-01-11T04:27:39.168Z,27
2024-01-11T04:29:39.380Z,28
2024-01-11T04:31:39.337Z,26
2024-01-11T04:33:39.521Z,26
2024-01-11T04:35:39.660Z,29
2024-01-11T04:37:39.614Z,28
2024-01-11T04:39:39.710Z,29
2024-01-11T04:41:40.111Z,29
2024-01-11T04:43:39.893Z,28
2024-01-11T04:45:39.996Z,28
2024-01-11T04:47:40.164Z,26
2024-01-11T04:49:40.161Z,25
2024-01-11T04:51:40.249Z,27
2024-01-11T04:53:40.479Z,30
2024-01-11T04:55:40.485Z,27
2024-01-11T04:57:40.577Z,26
2024-01-11T04:59:40.728Z,24
2024-01-11T05:01:40.771Z,23
2024-01-11T05:03:40.838Z,23
2024-01-11T05:05:41.061Z,42
2024-01-11T05:07:41.008Z,36
2024-01-11T05:09:41.097Z,48
2024-01-11T05:11:41.333Z,38
2024-01-11T05:13:41.283Z,45
2024-01-11T05:15:41.389Z,36
2024-01-11T05:17:41.549Z,39
2024-01-11T05:19:41.599Z,50
2024-01-11T05:21:41.642Z,47
2024-01-11T05:23:41.804Z,39
2024-01-11T05:25:41.857Z,29
2024-01-11T05:27:41.941Z,35
2024-01-11T05:29:42.148Z,49
2024-01-11T05:31:42.391Z,41
2024-01-11T05:33:42.680Z,39
2024-01-11T05:35:42.469Z,38
2024-01-11T05:37:42.480Z,34
2024-01-11T05:39:42.514Z,37
2024-01-11T05:41:42.694Z,33
2024-01-11T05:43:42.720Z,31
2024-01-11T05:45:47.801Z,26
2024-01-11T05:47:43.010Z,25
2024-01-11T05:49:43.044Z,26
2024-01-11T05:51:43.120Z,34
2024-01-11T05:53:43.249Z,50
2024-01-11T05:55:43.322Z,52
2024-01-11T05:57:43.604Z,64
2024-01-11T05:59:43.523Z,50
2024-01-11T06:01:43.780Z,36
2024-01-11T06:03:43.742Z,31
2024-01-11T06:05:43.974Z,27
2024-01-11T06:07:43.910Z,31
2024-01-11T06:09:44.021Z,35
2024-01-11T06:11:44.160Z,39
2024-01-11T06:13:44.254Z,35
2024-01-11T06:15:44.354Z,35
2024-01-11T06:19:44.552Z,36
2024-01-11T06:21:44.619Z,36
2024-01-11T06:23:44.836Z,35
2024-01-11T06:25:44.817Z,36
2024-01-11T06:27:45.165Z,36
2024-01-11T06:29:45.068Z,35
2024-01-11T06:31:45.082Z,36
2024-01-11T06:33:47.163Z,38
2024-01-11T06:35:45.319Z,36
2024-01-11T06:37:45.450Z,36
2024-01-11T06:39:45.476Z,34
2024-01-11T06:41:45.717Z,30
2024-01-11T06:43:45.663Z,29
2024-01-11T06:45:46.026Z,31
2024-01-11T06:47:45.965Z,34
2024-01-11T06:49:45.962Z,38
2024-01-11T06:51:46.065Z,42
2024-01-11T06:53:46.258Z,41
2024-01-11T06:55:46.316Z,40
2024-01-11T06:57:46.477Z,39
2024-01-11T06:59:46.516Z,39
2024-01-11T07:01:46.599Z,38
2024-01-11T07:03:46.741Z,35
2024-01-11T07:05:47.019Z,43
2024-01-11T07:07:46.915Z,35
2024-01-11T07:09:47.001Z,37
2024-01-11T07:11:47.206Z,55
2024-01-11T07:13:47.213Z,46
2024-01-11T07:15:47.336Z,48
2024-01-11T07:17:47.493Z,55
2024-01-11T07:19:47.555Z,55
2024-01-11T07:21:47.639Z,62
2024-01-11T07:23:47.836Z,69
2024-01-11T07:25:47.842Z,71
2024-01-11T07:27:47.922Z,70
2024-01-11T07:29:48.136Z,74
2024-01-11T07:31:48.153Z,77
2024-01-11T07:33:48.329Z,73
2024-01-11T07:35:48.465Z,85
2024-01-11T07:37:48.442Z,90
2024-01-11T07:39:48.521Z,90
2024-01-11T07:41:48.766Z,97
2024-01-11T07:45:48.809Z,97
2024-01-11T07:47:49.015Z,95
2024-01-11T07:49:49.108Z,95
2024-01-11T07:51:49.407Z,95
2024-01-11T07:53:49.257Z,99
2024-01-11T07:55:49.368Z,134
2024-01-11T07:57:49.474Z,113
2024-01-11T07:59:49.630Z,127
2024-01-11T08:01:49.659Z,129
2024-01-11T08:03:49.769Z,158
2024-01-11T08:05:49.953Z,186
2024-01-11T08:07:49.967Z,163
2024-01-11T08:09:50.066Z,173
2024-01-11T08:11:51.435Z,143
2024-01-11T08:13:50.276Z,129
2024-01-11T08:15:50.365Z,109
2024-01-11T08:17:50.503Z,103
2024-01-11T08:19:50.577Z,96
2024-01-11T08:21:50.707Z,91
2024-01-11T08:23:50.950Z,101
2024-01-11T08:25:50.865Z,89
2024-01-11T08:27:50.964Z,75
2024-01-11T08:29:51.160Z,87
2024-01-11T08:31:51.130Z,80
2024-01-11T08:33:51.335Z,72
2024-01-11T08:35:51.393Z,57
2024-01-11T08:37:51.502Z,63
2024-01-11T08:39:51.551Z,60
2024-01-11T08:41:51.695Z,60
2024-01-11T08:43:51.776Z,54
2024-01-11T08:45:51.912Z,55
2024-01-11T08:47:52.145Z,48
2024-01-11T08:49:52.137Z,49
2024-01-11T08:51:52.242Z,52
2024-01-11T08:53:52.423Z,59
2024-01-11T08:55:52.447Z,66
2024-01-11T08:57:52.574Z,74
2024-01-11T08:59:52.724Z,80
2024-01-11T09:02:01.779Z,80
2024-01-11T09:03:52.902Z,75
2024-01-11T09:05:53.107Z,73
2024-01-11T09:07:54.506Z,75
2024-01-11T09:11:53.310Z,71
2024-01-11T09:13:53.416Z,68
2024-01-11T09:15:53.495Z,59
2024-01-11T09:17:53.764Z,58
2024-01-11T09:19:53.753Z,54
2024-01-11T09:21:53.834Z,51
2024-01-11T09:23:54.002Z,51
2024-01-11T09:25:54.065Z,49
2024-01-11T09:27:54.182Z,49
2024-01-11T09:29:56.889Z,47
2024-01-11T09:31:54.377Z,52
2024-01-11T09:33:54.540Z,54
2024-01-11T09:35:54.608Z,58
2024-01-11T09:37:54.698Z,67
2024-01-11T09:39:54.793Z,62
2024-01-11T09:41:54.896Z,68
2024-01-11T09:43:54.985Z,59
2024-01-11T09:45:55.094Z,50
2024-01-11T09:47:55.270Z,53
2024-01-11T09:49:55.316Z,54
2024-01-11T09:51:55.454Z,55
2024-01-11T09:53:55.542Z,52
2024-01-11T09:55:55.665Z,54
2024-01-11T09:57:55.728Z,52
2024-01-11T09:59:55.990Z,45
2024-01-11T10:01:55.945Z,45
2024-01-11T10:03:56.129Z,43
2024-01-11T10:05:56.272Z,45
2024-01-11T10:07:56.307Z,53
2024-01-11T10:09:56.430Z,45
2024-01-11T10:11:56.529Z,55
2024-01-11T10:13:56.637Z,52
2024-01-11T10:15:56.812Z,59
2024-01-11T10:17:57.134Z,63
2024-01-11T10:19:57.233Z,49
2024-01-11T10:21:57.082Z,48
2024-01-11T10:23:57.439Z,58
2024-01-11T10:25:57.339Z,54
2024-01-11T10:27:57.428Z,52
2024-01-11T10:29:57.589Z,46
2024-01-11T10:31:57.678Z,41
2024-01-11T10:33:57.875Z,34
2024-01-11T10:35:57.897Z,42
2024-01-11T10:37:58.000Z,38
2024-01-11T10:39:58.085Z,44
2024-01-11T10:41:59.769Z,34
2024-01-11T10:43:58.376Z,34
2024-01-11T10:45:58.404Z,32
2024-01-11T10:48:01.654Z,38
2024-01-11T10:49:58.608Z,44
2024-01-11T10:51:58.723Z,33
2024-01-11T10:54:00.335Z,34
2024-01-11T10:55:59.050Z,29
2024-01-11T10:57:59.052Z,33
2024-01-11T10:59:59.159Z,40
2024-01-11T11:01:59.308Z,43
2024-01-11T11:03:59.375Z,36
2024-01-11T11:05:59.612Z,40
2024-01-11T11:07:59.554Z,60
2024-01-11T11:09:59.640Z,59
2024-01-11T11:11:59.748Z,46
2024-01-11T11:13:59.873Z,42
2024-01-11T11:16:01.950Z,39
2024-01-11T11:18:00.184Z,33
2024-01-11T11:20:00.276Z,36
2024-01-11T11:22:00.241Z,44
2024-01-11T11:24:00.359Z,51
2024-01-11T11:26:00.556Z,41
2024-01-11T11:28:01.179Z,68
2024-01-11T11:30:00.683Z,64
2024-01-11T11:32:00.812Z,47
2024-01-11T11:34:03.703Z,38
2024-01-11T11:36:00.993Z,64
2024-01-11T11:38:01.132Z,33
2024-01-11T11:40:02.068Z,35
2024-01-11T11:42:01.373Z,33
2024-01-11T11:44:01.560Z,30
2024-01-11T11:46:03.877Z,29
2024-01-11T11:48:01.836Z,27
2024-01-11T11:50:01.847Z,31
2024-01-11T11:52:01.881Z,38
2024-01-11T11:54:01.972Z,38
2024-01-11T11:56:02.121Z,39
2024-01-11T11:58:02.194Z,39
2024-01-11T12:00:02.313Z,40
2024-01-11T12:02:02.481Z,28
2024-01-11T12:04:02.547Z,28
2024-01-11T12:06:02.842Z,26
2024-01-11T12:08:02.713Z,22
2024-01-11T12:10:02.813Z,22
2024-01-11T12:12:11.449Z,21
2024-01-11T12:14:03.125Z,25
2024-01-11T12:16:03.149Z,26
2024-01-11T12:18:03.351Z,28
2024-01-11T12:20:03.398Z,28
2024-01-11T12:22:03.482Z,26
2024-01-11T12:24:03.618Z,26
2024-01-11T12:26:03.770Z,25
2024-01-11T12:28:03.811Z,25
2024-01-11T12:30:04.015Z,23
2024-01-11T12:32:04.175Z,24
2024-01-11T12:34:04.240Z,25
2024-01-11T12:36:04.239Z,25
2024-01-11T12:38:04.361Z,24
2024-01-11T12:40:04.457Z,23
2024-01-11T12:42:04.602Z,22
2024-01-11T12:44:04.684Z,22
2024-01-11T12:46:04.825Z,23
2024-01-11T12:48:05.398Z,23
2024-01-11T12:50:05.110Z,29
2024-01-11T12:52:05.098Z,23
2024-01-11T12:54:05.199Z,20
2024-01-11T12:56:05.446Z,24
2024-01-11T12:58:05.413Z,25
2024-01-11T13:00:05.500Z,23
2024-01-11T13:02:05.669Z,23
2024-01-11T13:04:05.801Z,23
2024-01-11T13:06:06.018Z,21
2024-01-11T13:08:05.943Z,23
2024-01-11T13:10:06.035Z,26
2024-01-11T13:12:06.373Z,30
2024-01-11T13:14:06.289Z,31
2024-01-11T13:16:06.349Z,49
2024-01-11T13:18:06.517Z,47
2024-01-11T13:20:06.732Z,42
2024-01-11T13:22:06.701Z,40
2024-01-11T13:24:06.822Z,39
2024-01-11T13:26:06.999Z,37
2024-01-11T13:28:07.207Z,34
2024-01-11T13:30:07.154Z,33
2024-01-11T13:32:07.254Z,29
2024-01-11T13:34:07.404Z,30
2024-01-11T13:36:07.461Z,31
2024-01-11T13:38:07.597Z,30
2024-01-11T13:40:07.711Z,24
2024-01-11T13:42:07.764Z,28
2024-01-11T13:44:07.953Z,27
2024-01-11T13:46:07.966Z,27
2024-01-11T13:48:08.389Z,32
2024-01-11T13:50:08.344Z,34
2024-01-11T13:52:08.349Z,33
2024-01-11T13:54:08.395Z,33
2024-01-11T13:56:08.551Z,33
2024-01-11T13:58:08.703Z,36
2024-01-11T14:00:08.711Z,33
2024-01-11T14:02:08.943Z,34
2024-01-11T14:04:08.949Z,32
2024-01-11T14:06:09.193Z,25
2024-01-11T14:08:09.159Z,28
2024-01-11T14:10:09.262Z,49
2024-01-11T14:12:09.356Z,92
2024-01-11T14:14:09.581Z,222
2024-01-11T14:16:09.694Z,182
2024-01-11T14:18:09.918Z,69
2024-01-11T14:20:09.936Z,60
2024-01-11T14:22:09.888Z,63
2024-01-11T14:24:09.986Z,52
2024-01-11T14:26:10.126Z,48
2024-01-11T14:28:10.198Z,43
2024-01-11T14:30:10.340Z,41
2024-01-11T14:32:11.940Z,50
2024-01-11T14:34:10.712Z,54
2024-01-11T14:36:10.762Z,49
2024-01-11T14:38:10.760Z,38
2024-01-11T14:40:10.856Z,37
2024-01-11T14:42:10.960Z,33
2024-01-11T14:44:11.041Z,33
2024-01-11T14:48:11.329Z,41
2024-01-11T14:50:12.010Z,40
2024-01-11T14:54:11.603Z,51
2024-01-11T14:56:11.793Z,51
2024-01-11T14:58:11.761Z,51
2024-01-11T15:00:12.052Z,54
2024-01-11T15:02:12.091Z,52
2024-01-11T15:04:12.151Z,52
2024-01-11T15:06:12.362Z,54
2024-01-11T15:08:12.342Z,53
2024-01-11T15:10:12.413Z,59
2024-01-11T15:12:12.547Z,52
2024-01-11T15:14:12.765Z,52
2024-01-11T15:16:12.727Z,59
2024-01-11T15:18:13.384Z,70
2024-01-11T15:20:12.976Z,69
2024-01-11T15:22:13.028Z,61
2024-01-11T15:24:13.162Z,64
2024-01-11T15:26:13.260Z,76
2024-01-11T15:28:13.447Z,84
2024-01-11T15:30:13.900Z,71
2024-01-11T15:32:13.611Z,66
2024-01-11T15:34:13.904Z,66
2024-01-11T15:36:13.771Z,68
2024-01-11T15:38:13.867Z,72
2024-01-11T15:40:13.988Z,75
2024-01-11T15:42:14.070Z,75
2024-01-11T15:44:14.209Z,75
2024-01-11T15:46:14.282Z,60
2024-01-11T15:48:14.536Z,62
2024-01-11T15:50:14.518Z,54
2024-01-11T15:52:14.598Z,47
2024-01-11T15:54:14.658Z,49
2024-01-11T15:56:14.813Z,44
2024-01-11T15:58:14.921Z,41
2024-01-11T16:00:14.959Z,36
2024-01-11T16:02:15.178Z,39
2024-01-11T16:04:15.186Z,43
2024-01-11T16:06:15.546Z,46
2024-01-11T16:08:15.469Z,47
2024-01-11T16:10:15.493Z,53
2024-01-11T16:12:15.627Z,54
2024-01-11T16:14:15.756Z,55
2024-01-11T16:16:15.922Z,54
2024-01-11T16:18:16.041Z,54
2024-01-11T16:20:16.076Z,65
2024-01-11T16:22:16.119Z,61
2024-01-11T16:24:16.242Z,49
2024-01-11T16:26:16.366Z,49
2024-01-11T16:28:16.414Z,50
2024-01-11T16:30:16.583Z,62
2024-01-11T16:32:16.833Z,52
2024-01-11T16:34:16.776Z,54
2024-01-11T16:36:16.843Z,58
2024-01-11T16:38:16.950Z,57
2024-01-11T16:40:17.021Z,57
2024-01-11T16:42:17.232Z,56
2024-01-11T16:46:17.364Z,57
2024-01-11T16:48:17.475Z,56
2024-01-11T16:50:17.627Z,46
2024-01-11T16:52:17.637Z,48
2024-01-11T16:54:17.743Z,46
2024-01-11T16:56:17.867Z,41
2024-01-11T16:58:17.952Z,39
2024-01-11T17:00:18.034Z,39
2024-01-11T17:02:18.173Z,38
2024-01-11T17:04:18.423Z,39
2024-01-11T17:06:18.414Z,38
2024-01-11T17:08:18.464Z,36
2024-01-11T17:10:18.539Z,35
2024-01-11T17:12:18.637Z,39
2024-01-11T17:14:18.780Z,42
2024-01-11T17:16:18.863Z,50
2024-01-11T17:18:19.142Z,46
2024-01-11T17:20:19.094Z,39
2024-01-11T17:22:19.145Z,41
2024-01-11T17:24:19.267Z,39
2024-01-11T17:26:19.488Z,39
2024-01-11T17:28:19.447Z,42
2024-01-11T17:30:19.591Z,42
2024-01-11T17:32:19.705Z,43
2024-01-11T17:34:19.829Z,45
2024-01-11T17:36:19.820Z,44
2024-01-11T17:38:20.073Z,47
2024-01-11T17:40:20.061Z,49
2024-01-11T17:42:20.142Z,52
2024-01-11T17:44:20.357Z,48
2024-01-11T17:46:20.419Z,49
2024-01-11T17:48:20.687Z,53
2024-01-11T17:50:20.619Z,53
2024-01-11T17:52:20.634Z,47
2024-01-11T17:54:20.762Z,48
2024-01-11T17:56:20.878Z,46
2024-01-11T17:58:22.919Z,47
2024-01-11T18:00:21.052Z,44
2024-01-11T18:02:21.163Z,39
2024-01-11T18:04:21.537Z,50
2024-01-11T18:06:21.503Z,48
2024-01-11T18:08:21.502Z,49
2024-01-11T18:10:21.557Z,53
2024-01-11T18:12:21.649Z,47
2024-01-11T18:14:21.742Z,41
2024-01-11T18:16:21.865Z,42
2024-01-11T18:18:22.099Z,43
2024-01-11T18:20:22.129Z,42
2024-01-11T18:22:22.165Z,42
2024-01-11T18:24:22.259Z,47
2024-01-11T18:26:22.441Z,45
2024-01-11T18:28:22.488Z,48
2024-01-11T18:30:22.664Z,55
2024-01-11T18:32:22.778Z,56
2024-01-11T18:34:22.839Z,47
2024-01-11T18:36:22.883Z,54
2024-01-11T18:38:23.001Z,53
2024-01-11T18:40:23.328Z,50
2024-01-11T18:42:23.192Z,54
2024-01-11T18:44:23.326Z,53
2024-01-11T18:46:23.385Z,59
2024-01-11T18:48:23.614Z,73
2024-01-11T18:50:23.580Z,68
2024-01-11T18:52:23.676Z,49
2024-01-11T18:54:23.780Z,45
2024-01-11T18:56:23.867Z,42
2024-01-11T18:58:23.982Z,43
2024-01-11T19:00:24.058Z,63
2024-01-11T19:02:24.227Z,70
2024-01-11T19:04:24.330Z,71
2024-01-11T19:06:24.492Z,68
2024-01-11T19:08:24.458Z,58
2024-01-11T19:10:24.568Z,62
2024-01-11T19:12:24.679Z,54
2024-01-11T19:14:24.820Z,55
2024-01-11T19:16:24.865Z,57
2024-01-11T19:18:25.138Z,61
2024-01-11T19:20:25.050Z,70
2024-01-11T19:22:25.117Z,75
2024-01-11T19:24:25.230Z,71
2024-01-11T19:26:25.342Z,65
2024-01-11T19:28:25.535Z,73
2024-01-11T19:30:25.779Z,69
2024-01-11T19:32:25.764Z,65
2024-01-11T19:34:25.710Z,59
2024-01-11T19:36:25.809Z,57
2024-01-11T19:38:25.985Z,56
2024-01-11T19:40:26.009Z,60
2024-01-11T19:42:26.136Z,62
2024-01-11T19:44:26.267Z,50
2024-01-11T19:46:26.328Z,49
2024-01-11T19:48:26.717Z,56
2024-01-11T19:50:26.559Z,62
2024-01-11T19:52:26.709Z,62
2024-01-11T19:54:26.712Z,64
2024-01-11T19:56:28.351Z,66
2024-01-11T19:58:26.898Z,52
2024-01-11T20:00:26.948Z,53
2024-01-11T20:02:27.085Z,54
2024-01-11T20:04:27.162Z,49
2024-01-11T20:06:27.299Z,48
2024-01-11T20:08:27.422Z,54
2024-01-11T20:10:27.463Z,43
2024-01-11T20:12:27.565Z,48
2024-01-11T20:14:27.717Z,53
2024-01-11T20:16:27.810Z,53
2024-01-11T20:18:29.092Z,50
2024-01-11T20:20:28.005Z,56
2024-01-11T20:22:28.108Z,52
2024-01-11T20:24:28.203Z,53
2024-01-11T20:26:29.677Z,54
2024-01-11T20:28:28.422Z,53
2024-01-11T20:30:28.633Z,48
2024-01-11T20:32:28.772Z,48
2024-01-11T20:34:28.779Z,49
2024-01-11T20:36:28.795Z,47
2024-01-11T20:38:28.936Z,49
2024-01-11T20:40:29.046Z,50
2024-01-11T20:42:29.140Z,53
2024-01-11T20:44:29.236Z,53
2024-01-11T20:46:29.336Z,50
2024-01-11T20:48:29.656Z,53
2024-01-11T20:50:29.518Z,51
2024-01-11T20:52:29.628Z,54
2024-01-11T20:54:29.732Z,49
2024-01-11T20:56:29.851Z,46
2024-01-11T20:58:29.891Z,48
2024-01-11T21:00:29.992Z,116
2024-01-11T21:02:30.109Z,104
2024-01-11T21:04:30.225Z,60
2024-01-11T21:06:30.437Z,65
2024-01-11T21:08:30.440Z,55
2024-01-11T21:10:30.562Z,51
2024-01-11T21:12:30.655Z,50
2024-01-11T21:14:30.797Z,58
2024-01-11T21:16:30.849Z,59
2024-01-11T21:18:31.311Z,65
2024-01-11T21:20:31.059Z,62
2024-01-11T21:22:31.147Z,55
2024-01-11T21:24:31.264Z,49
2024-01-11T21:26:31.381Z,50
2024-01-11T21:28:31.458Z,57
2024-01-11T21:30:31.594Z,52
2024-01-11T21:32:31.742Z,56
2024-01-11T21:34:31.899Z,51
2024-01-11T21:36:31.851Z,48
2024-01-11T21:38:31.963Z,45
2024-01-11T21:40:32.071Z,48
2024-01-11T21:42:32.163Z,47
2024-01-11T21:44:32.263Z,49
2024-01-11T21:46:32.364Z,50
2024-01-11T21:48:32.619Z,51
2024-01-11T21:50:32.785Z,49
2024-01-11T21:52:32.722Z,47
2024-01-11T21:54:32.915Z,47
2024-01-11T21:56:32.927Z,45
2024-01-11T21:58:33.046Z,56
2024-01-11T22:00:33.120Z,56
2024-01-11T22:02:33.268Z,54
2024-01-11T22:04:33.336Z,54
2024-01-11T22:06:33.538Z,48
2024-01-11T22:08:33.603Z,48
2024-01-11T22:10:33.664Z,48
2024-01-11T22:12:33.792Z,52
2024-01-11T22:14:33.946Z,46
2024-01-11T22:16:34.133Z,42
2024-01-11T22:18:34.274Z,43
2024-01-11T22:20:34.296Z,49
2024-01-11T22:22:34.310Z,48
2024-01-11T22:24:34.433Z,47
2024-01-11T22:26:34.571Z,47
2024-01-11T22:28:34.702Z,43
2024-01-11T22:30:34.800Z,41
2024-01-11T22:32:34.978Z,40
2024-01-11T22:34:34.982Z,40
2024-01-11T22:36:35.080Z,42
2024-01-11T22:38:35.234Z,41
2024-01-11T22:40:35.292Z,91
2024-01-11T22:42:35.405Z,72
2024-01-11T22:44:35.545Z,71
2024-01-11T22:46:35.645Z,59
2024-01-11T22:48:35.810Z,42
2024-01-11T22:50:35.979Z,41
2024-01-11T22:52:35.961Z,41
2024-01-11T22:54:36.061Z,41
2024-01-11T22:56:36.370Z,43
2024-01-11T22:58:36.270Z,44
2024-01-11T23:00:36.414Z,47
2024-01-11T23:04:36.611Z,42
2024-01-11T23:06:36.839Z,44
2024-01-11T23:08:36.818Z,45
2024-01-11T23:10:36.904Z,43
2024-01-11T23:12:37.003Z,42
2024-01-11T23:14:37.111Z,44
2024-01-11T23:16:37.234Z,43
2024-01-11T23:18:37.582Z,41
2024-01-11T23:22:37.624Z,42
2024-01-11T23:24:37.752Z,43
2024-01-11T23:26:37.893Z,42
2024-01-11T23:28:37.954Z,42
2024-01-11T23:30:38.143Z,42
2024-01-11T23:32:38.272Z,37
2024-01-11T23:34:38.367Z,41
2024-01-11T23:36:38.339Z,40
2024-01-11T23:38:38.507Z,41
2024-01-11T23:40:38.553Z,39
2024-01-11T23:42:38.674Z,40
2024-01-11T23:44:38.827Z,39
2024-01-11T23:46:38.887Z,43
2024-01-11T23:48:39.464Z,38
2024-01-11T23:50:39.288Z,38
2024-01-11T23:52:39.279Z,39
2024-01-11T23:54:39.325Z,37
2024-01-11T23:56:39.451Z,36
2024-01-11T23:58:39.578Z,34
